Terminal Aerodrome Forecast
Issued by NWS San Angelo, TX

Home | Current Version | Previous Version | Text Only | Print | Product List | Glossary On
Versions: 1 2 3 4 5 6 7 8 9 10 11 12 13 14 15 16 17
216
FTUS44 KSJT 251432 AAA
TAFABI
TAF AMD
KABI 251432Z 2515/2612 VRB04KT 4SM -SHRA BR VCTS BKN070CB
     FM251600 04005KT P6SM BKN035
     FM251800 05009KT 5SM -TSRA OVC015CB
     FM252100 02010G18KT 5SM -SHRA BR OVC009=

USA.gov is the U.S. government's official web portal to all federal, state and local government web resources and services.